Timeline UpdatesTrip UpdatesNews PostsPvt PostsTravel TipsAdmin PostsConv PostsFollowed PostsChat RequestsBlog PostsPNR Posts

Disclaimer
Search
 
 
Tue Sep 2, 2014 12:20:02 ISTHomeTrainsΣChainsAtlasPNRForumGalleryNewsFAQTripsMembersLoginFeedback
No Recent News for this Train
Other Trains in the News **new
Latest...
.
Fri Jun 22, 2012 (10:25PM)
⇐ Return Journey: Train# 54811

54812/Jodhpur-Bhopal Passenger

Time-Table HAS CHANGED.
Today (12:23AM)
Change Departure Station:
Change Arrival Station:
Post a Train Travel TipPost a Train Travel Tip **new
Post a Comment/Question/Picture/VideoPost a Comment/Question/Picture/Video
Pantry/Catering
✕ NO Pantry Car
✕ NO Catering
Loco/Rake Reversals
SWM/Sawai Madhopur Junction (4); KOTA/Kota Junction (5);
RSA - Rake Sharing
RSA with 54821/22 bhildi jodhpur passenger
Rake/Coach Composition
LOCO, SLR, GS, GS, GS, S-1, S-2, S-3, GS, GS, GS, GS, GS, GSLRD, STORE DELIVERY VAN
Loco
WDM 2A upto Bina, Bina to Bhopal: WAM 4
News    PNR    Forum    Time-Table    Availability    Fare Chart    Map    Arr/Dep History    Trips    Gallery    ΣChains    X/O    Timeline    
Travel Time: 3h 29m    11 halts    Distance: 113 km    Avg Speed: 32 km/hr
Type: Passenger
Zone: NWR/North Western
Departs @ 07:21
Platform# ???
SMTWTFS
Kalhar/KAH 
Arrives @ 10:50
Platform# 5
SMTWTFS
Bhopal Junction/BPL 

11 halts. 17 intermediate Stations between Kalhar and Bhopal Junction

Show ALL intermediate Stations  Show Old Time-Table

#CodeStation NameX/OArrivesAvgDepartsAvgHaltPFDay#KmSpeedElevZoneAddress
1JUJodhpur Junction (5)  -08:05---1-881.128241mNWRJodhpur, Rajasthan
2RKBRaikabagh Palace Junction (2)X  08:10-08:12-2m--1-878.860237mNWRJodhpur, Rajasthan
3BNOBanar  08:24-08:26-2m--1-866.855213mNWRBanar, Rajasthan
4JWLJajiwalXO  08:35-08:37-2m--1-858.667228mNWRJodhpur, Rajasthan
5AASAsranada  08:45-08:47-2m--1-849.861251mNWRState Highway 58, Rajasthan
6KSWKheri SalwaO  08:56-08:58-2m--1-840.664269mNWRJajiwal, Rajasthan
7PPRPipar Road Junction  09:04-09:06-2m--1-834.257272mNWRState Highway 58, Rajasthan
8SWFSathin Road  09:15-09:17-2m--1-825.662284mNWRUMED, Rajasthan
9UMEDUmedX  09:27-09:29-2m--1-815.356308mNWRJodhpur, Rajasthan
10KXGKharia Khangarh  09:40-09:42-2m--1-805.154310mNWRKharia Khangar, Rajasthan
11GOTNGotan (3)  09:50-09:52-2m--1-797.959323mNWRGotan, Rajasthan
12JOMJogi Magra (1)X  10:02-10:04-2m11-788.224335mNWRNagaur, Rajasthan
13MTDMerta Road Junction (4)  10:30-10:35-5m--1-777.8116322mNWRPhalodi, Rajasthan
14KQWKheduli (1)  10:43-10:45-2m--1-762.417307mNWRRen, Rajasthan
15RENRen  10:52-10:54-2m--1-760.463307mNWRNagaur, Rajasthan
16JACJalsu  11:07-11:09-2m--1-746.748321mNWRNagaur, Rajasthan
17JACNJalsu Nanak  11:16-11:18-2m--1-741.149331mNWRREN, Rajasthan
18DNADegana Junction (4)  11:27-11:30-3m--1-733.782339mNWRDegana, Rajasthan
19GCHGachhipura  11:41-11:43-2m--1-718.768362mNWRNagaur, Rajasthan
20BSRLBesroli  11:53-11:55-2m--1-707.471378mNWRNagaur, Rajasthan
21BOWBorawar  12:05-12:07-2m--1-695.539403mNWRBesrol, Rajasthan
22MKNMakrana Junction (2)  12:15-12:17-2m--1-690.357423mNWRMakrana, Rajasthan
23KMNCKuchaman City  12:32-12:34-2m--1-676.241404mNWRPalari, Rajasthan
24THMRThathana Mithri  12:41-12:43-2m--1-671.451388mNWRNawa City, Rajasthan
25NYKNaya KharadiaX  12:48-12:50-2m--1-667.136375mNWRMakrana, Rajasthan
26NACNawa City  13:01-13:03-2m--1-660.550390mNWRNawa, Rajasthan
27GVMRGovindi Marwar  13:14-13:16-2m--1-651.364373mNWRSambhar Lake, Rajasthan
28GAGudha (1)X  13:26-13:28-2m11-640.646365mNWRPhulera, Rajasthan
29SBRSambhar LakeO  13:38-13:40-2m--1-632.95368mNWRSambhar, Rajasthan
30FLPhulera Junction (5)X  15:00-15:05-5m--1-625.787386mNWRPhulera, Rajasthan
31HDAHirnoda  15:12 15:11-15:13-1 2m--1-617.048400mNWRJaipur, Rajasthan
32DHNDDhinda  15:19 15:18-15:20-1 2m--1-613.056386mNWRMDR 59, Rajasthan
33JOBAsalpur JobnerX  15:27 15:26-15:28-1 2m--1-607.464379mNWRJaipur, Rajasthan
34BOBSBobas  15:36 15:35-15:37-1 2m--1-600.059396mNWRJaipur, Rajasthan
35SHNXSheo Singh Pura  15:45 15:44-15:46-1 2m--1-593.146411mNWRJaipur, Rajasthan
36DNKDhanakya  15:52 15:51-15:53-1 2m--1-589.255418mNWRJaipur, Rajasthan
37BDYKBindayaka  15:59 15:58-16:00-1 2m--1-584.762411mNWRJaipur, Rajasthan
38KKUKanakpuraXO  16:06 16:05-16:07-1 2m--1-579.516429mNWRJaipur, Rajasthan
39JPJaipur Junction (7)X  16:45 16:40-17:45 16:50-60 10m41-570.77434mNWRJaipur, Rajasthan
40DPADurgapura (3)  17:54 17:51-17:55 17:53-1 2m11-563.242400mNWRJaipur, Rajasthan
41SNGNSanganer  18:04 18:00-18:05 18:02-1 2m11-558.377383mNWRJaipur, Rajasthan
42SASShivdaspura Padampura  18:20 18:15-18:21 18:17-1 2m11-541.859335mNWRJaipur, Rajasthan
43CKSChaksuX  18:32 18:31-18:33-1 2m--1-527.952319mNWRDist. Jaipur, Rajasthan
44CHNNChannani  18:46 18:45-18:47-1 2m--1-517.578326mNWRChaksu, Rajasthan
45BNLWBansthali Niwai (2)  18:58 18:57-18:59-1 2m--1-504.673315mNWRMaharajpura, Rajasthan
46SRASSiras  19:13 19:12-19:14-1 2m--1-488.868270mNWRIsarda, Rajasthan
47ISAIsarda  19:24 19:23-19:25-1 2m--1-478.664271mNWRMDR 111, Rajasthan
48SURLSureli  19:34 19:33-19:35-1 2m--1-470.069258mNWRDevpura, Rajasthan
49CKBChauth ka Barwara (1)X  19:44 19:43-19:45-1 2m11-460.927272mNWRSawai Madhopur, Rajasthan
50DPZDevpura (1)X  20:11 20:10-20:12-1 2m11-449.836271mNWRSawai Madhopur, Rajasthan
51SWMSawai Madhopur Junction (4)O↵¶20:25 20:30-20:40-15 10m31-439.057266mWCRSawai Madhopur, Rajasthan
52IDGIndargarh Sumerganj Mandi (2)  21:19 21:18-21:20-1 2m--1-402.882247mWCRIndargarh, Rajasthan
53LKELakheri (3)  21:29 21:28-21:30-1 2m--1-391.870228mWCRBundi, Rajasthan
54KPZKaprenX  21:54 21:53-21:55-1 2m--1-364.871234mWCRKota - Lalsot Mega Highway, Rajasthan
55KPTNKeshorai Patan  22:13 22:12-22:14-1 2m--1-344.726243mWCRSH 33, Rajasthan
56KOTAKota Junction (5)22:45-22:55-10m41-331.262256mWCRKota, Rajasthan
57ATHAntah  23:38-23:40-2m--1-286.437246mWCRAntah, Rajasthan
58BAZBaran  00:18 00:15-00:20-2 5m--2-264.843261mWCRBaran, Rajasthan
59ATRUAtru (1)  01:01-01:03-2m12-235.765288mWCRAtru, Rajasthan
60SYLSalpura  01:17 01:16-01:18-1 2m--2-221.671311mWCRKawari, Rajasthan
61CAGChhabra Gugor  01:31-01:33-2m--2-206.132342mWCRBaran, Rajasthan
62RTARuthiyai Junction (2)  02:45-02:50-5m--2-167.654414mWCRRuthiyai, Madhya Pradesh
63MUGAMahugaraX  03:05-03:07-2m--2-154.025501mWCRRuthiyai, Madhya Pradesh
64GUNAGuna Junction (3)X  03:25-03:35-10m--2-146.637477mWCRJn Point Indore/Gwalior/Bina/Kota, Madhya Pradesh
65PGAPagara  03:57-03:59-2m--2-133.246494mWCRGuna, Madhya Pradesh
66SHDRShadhoragaon  04:19-04:21-2m--2-117.856504mWCRGuna, Madhya Pradesh
67ASKNAshok Nagar (2)  04:40-04:42-2m--2-100.154502mWCRAshoknagar, Madhya Pradesh
68ORROrr  04:56-04:58-2m--2-87.459450mWCRAshoknagar, Madhya Pradesh
69PIAPipraigaon (3)  05:18 05:12-05:20 05:14-2m22-73.759451mWCRAshoknagar, Madhya Pradesh
70GVBGuneru Bamori (2)  05:33 05:25-05:35 05:27-2m--2-62.863427mWCRAshoknagar, Madhya Pradesh
71MNVMungaoli (2)  05:43 05:35-05:45 05:37-2m--2-54.454403mWCRAshoknagar, Madhya Pradesh
72SRKISemarkheri  06:03 05:54-06:05 05:56-2m--2-39.118412mWCRBina, Madhya Pradesh
73BINABina Junction (4)X  06:40-06:50-10m22-26.154414mWCRJn Pt - KATNI/GUNA/ BPL/JHS, Madhya Pradesh
74MABAMandi Bamora (3)X  07:09-07:11-2m22-8.866413mWCRState Highway 14, Madhya Pradesh
75KAH»Kalhar (3)»O  07:19-07:21-2m--20.066409mWCRSagar, Madhya Pradesh
76BETBareth (4)XO  07:30-07:32-2m--29.825418mWCRState Highway 19, Madhya Pradesh
77BAQGanj Basoda (4)XO  07:56-07:58-2m2219.766 WCRVidisha, Madhya Pradesh
78PAIPabai (3)XO  08:06-08:08-2m--228.472 WCRVidisha, Madhya Pradesh
79GLGGulabhGanj (3)XO  08:16-08:18-2m2238.056 WCRVidisha, Madhya Pradesh
80SUMRSumer (3)X  08:26-08:28-2m--245.540 WCRVidisha, Madhya Pradesh
81BHSVidisha (3)XO  09:09 08:48-09:11 08:50-2m2259.023 WCRVidisha, Madhya Pradesh
82SCISanchi (2)X  09:23 09:15-09:25 09:17-2m1268.455428mWCRRaisen, Madhya Pradesh
83SMTSalamatpur (3)XO  09:33 09:25-09:35 09:27-2m1275.731 WCRRaisen, Madhya Pradesh
84DWGDewanGanj (3)X  09:43 09:45-09:45 09:47-2m2285.059 WCRRaisen, Madhya Pradesh
85BVBBhadbhadaghat (2)X  09:56-09:58-2m1293.830474mWCRVidisha Road Bhopal, Madhya Pradesh
86SUWSukhisewaniyan (3)XO  10:08 10:13-10:10 10:15-2m22101.219508mWCRBhopal, Madhya Pradesh
87BPL•Bhopal Junction (6)•  10:50--52112.5-497mWCRBhopal, Madhya Pradesh
Scroll to Top
Scroll to Bottom